Terminal Aerodrome Forecast
Issued by NWS

Home | Current Version | Previous Version | Text Only | Print | Product List | Glossary On
Versions: 1 2 3 4 5 6 7 8 9 10 11 12 13 14
000
FTUS41 KPBZ 010532
TAFDUJ
TAF
KDUJ 010532Z 0106/0206 00000KT 2SM BR BKN003 OVC015
     FM010900 34003KT P6SM BKN015
     FM011400 35004KT P6SM SCT025
     FM011800 35008KT P6SM SCT050=

USA.gov is the U.S. government's official web portal to all federal, state and local government web resources and services.